Sandberg, California
Current Conditions -  °F | °C
As of 7:48 PM on Monday 22 Dec 2014 (Local Time) from KSDB Reporting Station
Clear Clear  
Wind Chill: 50°   Ceiling: Unl
Heat Index: 50°   Visibility: 10mi
Dew Point: 37°   Wind: 14mph
Humidity: 61%   Direction: 50°NE
Pressure: 30.17"   Gusts: 23mph
Location:  34.6849°N, 118.558°W
Report Text: KSDB 230348Z AUTO 05012G20KT 10SM CLR 10/03 A3017 RMK AO2 SLP192 T01000028
Loading
Personal Weather Stations






























Interactive Weather Map New forecast layout! Learn more

10-Day Weather Forecast

Advertisements
Track Severe Weather on mobile